createdAt,value
2022-09-11T00:04:36.418Z,4.29
2022-09-11T00:19:28.638Z,2.22
2022-09-11T00:34:20.358Z,5.70
2022-09-11T00:49:29.249Z,3.91
2022-09-11T01:04:25.946Z,3.09
2022-09-11T01:19:26.018Z,3.24
2022-09-11T01:34:27.387Z,5.83
2022-09-11T01:49:24.781Z,4.57
2022-09-11T02:04:18.498Z,6.58
2022-09-11T02:19:10.829Z,7.07
2022-09-11T02:34:02.629Z,5.22
2022-09-11T02:49:15.937Z,3.56
2022-09-11T03:04:12.852Z,4.11
2022-09-11T03:19:03.903Z,5.58
2022-09-11T03:33:56.375Z,5.44
2022-09-11T03:48:48.720Z,5.44
2022-09-11T04:18:32.139Z,3.74
2022-09-11T04:33:23.853Z,5.23
2022-09-11T04:48:15.254Z,5.17
2022-09-11T05:03:07.369Z,4.31
2022-09-11T05:17:59.249Z,4.58
2022-09-11T05:32:56.024Z,5.14
2022-09-11T05:47:54.227Z,5.70
2022-09-11T06:02:42.202Z,6.68
2022-09-11T06:17:34.053Z,4.72
2022-09-11T06:32:26.176Z,6.13
2022-09-11T06:47:18.799Z,8.31
2022-09-11T07:02:10.905Z,7.89
2022-09-11T07:17:02.984Z,7.67
2022-09-11T07:31:55.719Z,8.49
2022-09-11T07:46:47.627Z,7.80
2022-09-11T08:01:40.368Z,6.67
2022-09-11T08:16:32.720Z,6.62
2022-09-11T08:31:34.598Z,8.16
2022-09-11T08:46:25.872Z,6.38
2022-09-11T09:01:37.137Z,6.72
2022-09-11T09:17:11.434Z,7.18
2022-09-11T09:32:08.273Z,7.21
2022-09-11T09:46:59.929Z,7.13
2022-09-11T10:01:51.925Z,7.23
2022-09-11T10:16:44.138Z,7.37
2022-09-11T10:31:36.868Z,6.77
2022-09-11T10:46:29.148Z,6.00
2022-09-11T11:01:21.163Z,6.11
2022-09-11T12:17:31.696Z,4.50
2022-09-11T12:32:28.708Z,4.46
2022-09-11T12:47:32.957Z,4.36
2022-09-11T13:02:45.223Z,3.51
2022-09-11T13:17:46.566Z,3.30
2022-09-11T13:32:43.171Z,5.07
2022-09-11T13:47:35.251Z,5.39
2022-09-11T14:02:39.840Z,2.78
2022-09-11T14:17:36.512Z,2.62
2022-09-11T14:32:37.080Z,2.61
2022-09-11T14:47:30.956Z,2.71
2022-09-11T15:02:25.272Z,3.95
2022-09-11T15:17:18.324Z,3.35
2022-09-11T15:32:09.360Z,4.03
2022-09-11T15:47:00.445Z,2.81
2022-09-11T16:16:56.306Z,2.80
2022-09-11T16:31:47.298Z,3.06
2022-09-11T17:01:49.525Z,3.16
2022-09-11T17:46:41.517Z,5.10
2022-09-11T18:16:32.958Z,4.36
2022-09-11T18:31:23.940Z,6.15
2022-09-11T18:46:14.563Z,6.43
2022-09-11T19:01:05.260Z,6.11
2022-09-11T19:15:56.990Z,7.06
2022-09-11T19:31:00.799Z,8.11
2022-09-11T19:46:05.218Z,8.41
2022-09-11T20:01:03.332Z,6.79
2022-09-11T20:15:56.854Z,8.32
2022-09-11T20:30:48.059Z,5.76
2022-09-11T20:45:39.462Z,5.62
2022-09-11T21:00:30.697Z,6.59
2022-09-11T21:15:21.760Z,6.70
2022-09-11T21:30:13.328Z,9.90
2022-09-11T21:45:04.272Z,7.17
2022-09-11T21:59:55.524Z,6.59
2022-09-11T22:14:46.573Z,7.82
2022-09-11T22:29:37.593Z,7.18
2022-09-11T22:44:28.859Z,9.46
2022-09-11T22:59:20.642Z,6.99
2022-09-11T23:14:14.498Z,7.17
2022-09-11T23:29:02.708Z,7.83
2022-09-11T23:43:54.028Z,7.81
2022-09-11T23:58:45.331Z,7.38
